Aeroporto :
LOGIN :

Iscrizione | Disclaimer

   EN    FR    IT 

 










Sommario :    VFR   VFR Marginale   IFR   IFR Intensivo   IFR Molto Intensivo
Visibilità : 
Base nubi : 
>= 8 km
>= 3000ft
5 / 8 km
1000 / 3000 ft
1500m / 5 km
500 / 1000 ft
800 / 1500m
200 / 500 ft
< 800m
< 200 ft
Simboli :   Temporali  Nebbia  Neve Forte  Precipitazioni Forti  Vento > 20 kt
SIGMETs :   Varie  Temporali  Ghiacco  Turbolenza  Onda orograficha  Ceneri Vulcaniche






- Altitudine del aeroporto : 297 ft
- Codice IATA : BBU


LRBS - Bucarest - Baneasa Aurel Vlaicu

ULTIMO METAR :
  • 230100Z 05009KT 3500 -SN BR SCT008 OVC017 M01/M02 Q1026 R07/29//95 TEMPO 3000 -SN

METARs OBSOLETI :
  • 230030Z 05010KT 9999 -SN OVC018 M00/M02 Q1026 R07/19//95 BECMG 5000 -SN
  • 230000Z 05009KT 9999 FEW009 OVC018 M01/M02 Q1026 R07/19//95 BECMG 5000 -SN
  • 222330Z 05010KT 9999 FEW008 OVC019 M01/M02 Q1026 R07/19//95 BECMG 5000 -SN
  • 222300Z 05007KT 9999 FEW008 OVC020 M01/M02 Q1026 R07/19//95 BECMG 5000 -SN
  • 222230Z 05009KT 9999 SCT008 OVC020 M01/M02 Q1026 R07/19//95 NOSIG

TAF TAF LRBS
Valido dal 23 a 00 ore il 24 a 00 ore UTC


222300Z 2300/2324 05010KT 7000 BKN015 BKN030
TEMPO 2300/2305 3000 -SN BR BKN010 OVC025
PROB30
TEMPO 2305/2309 3000 -FZRADZ BKN005 OVC020
PROB40
TEMPO 2320/2324 5000 -RA BR BKN005 BKN020



MetMap, La meteo Aeronautica in un colpo d'occhio ! - Copyright ORBIFLY Dicembre 2007 - Disclaimer

ORBIFLY MET'MAP TEAM :

Programmazione e sviluppo : Alexandra Zaïnal
Concezione e sviluppo : Baudouin d'Aumeries
Co-Programmazione e sviluppo : Marc-Olivier Méhu
Supporto tecnico e logistico : Manuel Goepfert
Aiuto per la traduzione : Arnaldo La Scala

Contatto : metmap@orbifly.com




FONTI E CREDITI :

   NOAA